Time;durP1;ratioP1;P1;durP2;ratioP2;P2;SDS_P1;SDS_P2;PMS_P1;PMS_P2;Temp;Humidity;BMP_temperature;BMP_pressure;BME280_temperature;BME280_humidity;BME280_pressure;Samples;Min_cycle;Max_cycle;Signal;HPM_P1;HPM_P2
2022/10/03 00:01:45;;;;;;;12.17;11.17;;;;;;;10.63;100.00;97520.91;4862347;29;20662;-71
2022/10/03 00:04:13;;;;;;;16.40;14.83;;;;;;;10.58;100.00;97523.34;4923891;29;20296;-71
2022/10/03 00:06:58;;;;;;;17.37;16.17;;;;;;;10.55;100.00;97532.44;4955539;29;20224;-71
2022/10/03 00:09:39;;;;;;;13.40;12.13;;;;;;;10.50;100.00;97534.06;4955288;29;20221;-71
2022/10/03 00:12:19;;;;;;;14.73;12.63;;;;;;;10.52;100.00;97525.00;4938280;29;20280;-71
2022/10/03 00:15:03;;;;;;;17.10;15.80;;;;;;;10.53;100.00;97536.28;4953721;29;20192;-71
2022/10/03 00:17:49;;;;;;;15.83;14.37;;;;;;;10.42;100.00;97545.59;4955140;29;20185;-71
2022/10/03 00:20:17;;;;;;;13.30;12.00;;;;;;;10.42;100.00;97550.84;4939450;29;20630;-71
2022/10/03 00:22:55;;;;;;;15.27;12.90;;;;;;;10.35;100.00;97556.09;4939759;29;20185;-72
2022/10/03 00:25:58;;;;;;;13.93;12.67;;;;;;;10.41;100.00;97557.09;4929453;29;20674;-72
2022/10/03 00:28:54;;;;;;;19.73;17.97;;;;;;;10.48;100.00;97560.47;4936288;29;20190;-71
2022/10/03 00:31:31;;;;;;;16.43;14.83;;;;;;;10.44;100.00;97564.53;4936213;29;20257;-72
2022/10/03 00:34:33;;;;;;;20.17;18.03;;;;;;;10.51;100.00;97564.50;4951993;29;20205;-71
2022/10/03 00:37:26;;;;;;;21.67;19.67;;;;;;;10.47;100.00;97571.19;4897163;29;20194;-71
2022/10/03 00:46:08;;;;;;;21.57;19.43;;;;;;;10.36;100.00;97562.94;4952007;29;20689;-70
2022/10/03 00:49:00;;;;;;;19.80;17.30;;;;;;;10.38;100.00;97578.44;4953754;29;20213;-71
2022/10/03 00:51:46;;;;;;;18.40;16.53;;;;;;;10.27;100.00;97579.88;4943200;29;20221;-71
2022/10/03 00:54:51;;;;;;;20.50;17.80;;;;;;;10.28;100.00;97576.25;4953958;29;20177;-71
2022/10/03 00:57:36;;;;;;;19.33;17.37;;;;;;;10.26;100.00;97572.22;4954657;28;20177;-70
2022/10/03 01:00:23;;;;;;;21.57;18.87;;;;;;;10.31;100.00;97575.84;4954085;28;20236;-70
2022/10/03 01:03:13;;;;;;;20.53;18.43;;;;;;;10.37;100.00;97571.59;4953997;28;20181;-70
2022/10/03 01:05:41;;;;;;;24.97;22.17;;;;;;;10.47;100.00;97574.63;4953338;28;20215;-70
2022/10/03 01:08:34;;;;;;;21.03;19.03;;;;;;;10.41;100.00;97575.44;4953506;28;20204;-70
2022/10/03 01:11:24;;;;;;;25.03;22.63;;;;;;;10.36;100.00;97575.25;4953634;28;20277;-70
2022/10/03 01:14:30;;;;;;;20.93;18.73;;;;;;;10.34;100.00;97578.06;4953453;28;20227;-70
2022/10/03 01:17:17;;;;;;;21.50;19.30;;;;;;;10.43;100.00;97582.06;4897399;29;20190;-70
2022/10/03 01:19:51;;;;;;;22.40;20.10;;;;;;;10.53;100.00;97576.41;4913364;29;20330;-70
2022/10/03 01:22:21;;;;;;;25.73;19.83;;;;;;;10.47;100.00;97569.38;4940416;29;20251;-70
2022/10/03 01:24:57;;;;;;;20.20;17.37;;;;;;;10.48;100.00;97575.41;4952437;29;20309;-70
2022/10/03 01:30:21;;;;;;;21.93;18.43;;;;;;;10.46;100.00;97572.19;4953761;28;20544;-70
2022/10/03 01:30:34;;;;;;;21.83;19.50;;;;;;;10.58;100.00;97576.59;4952602;29;20538;-71
2022/10/03 01:33:14;;;;;;;23.80;21.30;;;;;;;10.58;100.00;97575.78;4953441;28;20544;-70
2022/10/03 01:36:01;;;;;;;23.17;20.77;;;;;;;10.55;100.00;97577.00;4952325;29;20576;-70
2022/10/03 01:38:38;;;;;;;22.30;19.73;;;;;;;10.50;100.00;97570.75;4939799;29;20194;-70
2022/10/03 01:41:41;;;;;;;22.47;19.77;;;;;;;10.48;100.00;97576.19;4952720;28;20212;-70
2022/10/03 01:44:25;;;;;;;23.63;21.00;;;;;;;10.52;100.00;97581.84;4965915;28;20231;-71
2022/10/03 01:46:57;;;;;;;24.17;20.93;;;;;;;10.49;100.00;97585.69;4993033;28;20250;-70
2022/10/03 01:49:44;;;;;;;23.80;21.33;;;;;;;10.33;100.00;97586.94;5005660;28;20180;-70
2022/10/03 01:52:30;;;;;;;24.50;21.40;;;;;;;10.44;100.00;97593.34;4994098;28;20180;-70
2022/10/03 01:55:22;;;;;;;23.67;19.77;;;;;;;10.42;100.00;97598.00;5001442;28;20176;-70
2022/10/03 01:58:02;;;;;;;24.33;21.47;;;;;;;10.38;100.00;97594.16;4994686;28;20605;-71
2022/10/03 02:00:41;;;;;;;22.80;20.33;;;;;;;10.35;100.00;97595.41;5010555;28;20176;-71
2022/10/03 02:03:33;;;;;;;26.50;22.23;;;;;;;10.46;100.00;97614.94;5013096;28;20186;-71
2022/10/03 02:06:09;;;;;;;24.27;21.43;;;;;;;10.56;100.00;97615.31;5016088;28;20209;-71
2022/10/03 02:08:54;;;;;;;25.63;19.57;;;;;;;10.42;100.00;97622.38;5016144;28;20269;-71
2022/10/03 02:11:44;;;;;;;26.03;23.00;;;;;;;10.41;100.00;97620.78;5014197;28;20190;-72
2022/10/03 02:14:34;;;;;;;25.37;18.80;;;;;;;10.41;100.00;97618.16;5015723;28;20271;-70
2022/10/03 02:17:06;;;;;;;22.17;19.80;;;;;;;10.53;100.00;97623.59;5015736;28;20529;-70
2022/10/03 02:19:50;;;;;;;25.00;19.97;;;;;;;10.53;100.00;97623.59;5015794;28;20191;-71
2022/10/03 02:22:29;;;;;;;27.60;21.00;;;;;;;10.58;100.00;97622.97;5014246;28;20172;-71
2022/10/03 02:25:26;;;;;;;23.50;20.67;;;;;;;10.47;100.00;97628.84;5001923;28;20593;-71
2022/10/03 02:28:29;;;;;;;24.27;20.00;;;;;;;10.55;100.00;97629.41;4989832;28;20246;-71
2022/10/03 02:31:00;;;;;;;23.43;20.30;;;;;;;10.54;100.00;97633.03;5008749;28;20183;-70
2022/10/03 02:33:50;;;;;;;23.93;19.57;;;;;;;10.68;100.00;97629.38;4998974;28;20187;-71
2022/10/03 02:36:37;;;;;;;25.20;22.50;;;;;;;10.58;100.00;97621.16;4995972;28;20646;-71
2022/10/03 02:39:21;;;;;;;27.03;21.43;;;;;;;10.67;100.00;97619.91;4996327;28;20180;-71
2022/10/03 02:42:13;;;;;;;26.27;21.50;;;;;;;10.57;100.00;97626.59;5014910;28;20175;-71
2022/10/03 02:45:31;;;;;;;25.13;22.43;;;;;;;10.70;100.00;97624.72;5014458;28;20301;-71
2022/10/03 02:48:24;;;;;;;31.83;24.87;;;;;;;10.61;100.00;97625.16;4918074;28;20277;-71
2022/10/03 02:51:05;;;;;;;27.63;23.63;;;;;;;10.54;100.00;97624.38;5005568;28;20681;-71
2022/10/03 02:53:47;;;;;;;27.97;23.33;;;;;;;10.59;100.00;97625.38;4995849;28;20219;-71
2022/10/03 02:56:55;;;;;;;35.07;24.70;;;;;;;10.60;100.00;97620.94;4996101;28;20211;-70
2022/10/03 02:59:52;;;;;;;26.17;22.50;;;;;;;10.57;100.00;97616.91;4994952;28;20667;-71
2022/10/03 03:02:54;;;;;;;27.57;23.83;;;;;;;10.63;100.00;97628.41;5007862;28;20218;-71
2022/10/03 03:06:03;;;;;;;25.80;22.90;;;;;;;10.66;100.00;97622.72;4981231;28;20552;-71
2022/10/03 03:08:59;;;;;;;26.47;21.80;;;;;;;10.60;100.00;97620.94;4995638;28;20231;-71
2022/10/03 03:11:33;;;;;;;26.17;22.10;;;;;;;10.67;100.00;97632.22;4995602;28;20660;-71
2022/10/03 03:14:25;;;;;;;22.50;19.93;;;;;;;10.63;100.00;97621.34;4975772;28;20192;-71
2022/10/03 03:16:53;;;;;;;24.17;20.43;;;;;;;10.64;100.00;97622.16;4964451;28;20554;-71
2022/10/03 03:20:04;;;;;;;23.17;20.50;;;;;;;10.56;100.00;97614.50;4995240;28;20203;-71
2022/10/03 03:23:00;;;;;;;22.67;20.03;;;;;;;10.62;100.00;97613.69;4966033;28;20527;-71
2022/10/03 03:25:44;;;;;;;22.60;20.03;;;;;;;10.66;100.00;97607.00;5014547;28;20195;-70
2022/10/03 03:28:35;;;;;;;22.43;19.50;;;;;;;10.57;100.00;97611.69;5010463;28;20251;-70
2022/10/03 03:31:15;;;;;;;21.13;17.97;;;;;;;10.51;100.00;97604.63;4994810;28;20199;-70
2022/10/03 03:33:56;;;;;;;20.50;17.33;;;;;;;10.50;100.00;97610.88;5013032;28;20171;-71
2022/10/03 03:36:46;;;;;;;18.73;16.83;;;;;;;10.51;100.00;97611.69;5014265;28;20238;-71
2022/10/03 03:39:33;;;;;;;19.00;16.33;;;;;;;10.54;100.00;97612.06;5011896;28;20194;-70
2022/10/03 03:42:22;;;;;;;17.53;15.53;;;;;;;10.62;100.00;97609.25;5000390;28;20649;-71
2022/10/03 03:45:09;;;;;;;22.33;14.33;;;;;;;10.49;100.00;97605.84;5013719;28;20306;-70
2022/10/03 03:47:53;;;;;;;17.10;15.23;;;;;;;10.37;100.00;97610.91;4995511;28;20649;-71
2022/10/03 03:51:10;;;;;;;15.83;14.33;;;;;;;10.34;100.00;97622.59;4994771;28;20850;-71
2022/10/03 03:53:49;;;;;;;19.73;16.97;;;;;;;10.31;100.00;97611.72;4994698;28;20199;-70
2022/10/03 03:56:17;;;;;;;19.17;17.00;;;;;;;10.25;100.00;97615.19;4995490;28;20612;-71
2022/10/03 03:59:13;;;;;;;18.23;16.43;;;;;;;10.14;100.00;97619.16;4994639;28;20202;-71
2022/10/03 04:02:02;;;;;;;18.33;16.37;;;;;;;10.13;100.00;97614.94;4995127;28;20210;-71
2022/10/03 04:04:44;;;;;;;21.37;16.73;;;;;;;10.10;100.00;97617.16;5012932;28;20572;-71
2022/10/03 04:07:48;;;;;;;19.50;17.43;;;;;;;10.03;100.00;97623.19;5013810;28;20203;-71
2022/10/03 04:10:46;;;;;;;22.13;17.80;;;;;;;10.05;100.00;97625.63;5014066;28;20183;-71
2022/10/03 04:13:46;;;;;;;20.73;17.13;;;;;;;10.14;100.00;97624.41;5000564;28;20627;-71
2022/10/03 04:19:48;;;;;;;19.33;16.47;;;;;;;10.12;100.00;97623.81;5009606;28;20681;-71
2022/10/03 04:22:51;;;;;;;19.97;14.77;;;;;;;10.15;100.00;97638.31;5008058;28;20184;-70
2022/10/03 04:25:41;;;;;;;17.63;15.17;;;;;;;10.16;100.00;97632.06;5007634;28;20187;-72
2022/10/03 04:28:25;;;;;;;21.97;15.53;;;;;;;10.07;100.00;97620.19;5013330;28;20575;-70
2022/10/03 04:31:15;;;;;;;28.00;15.93;;;;;;;10.04;100.00;97626.63;5003400;28;20207;-71
2022/10/03 04:34:13;;;;;;;23.40;15.53;;;;;;;10.09;100.00;97631.25;4991006;28;20165;-72
2022/10/03 04:37:08;;;;;;;25.27;15.63;;;;;;;10.03;100.00;97632.88;4994219;28;20186;-70
2022/10/03 04:39:54;;;;;;;18.87;15.40;;;;;;;10.13;100.00;97633.28;4993221;28;20588;-71
2022/10/03 04:42:37;;;;;;;25.73;17.03;;;;;;;10.20;100.00;97634.09;4994090;28;20211;-71
2022/10/03 04:45:37;;;;;;;24.73;16.70;;;;;;;10.23;100.00;97636.34;5012628;28;20251;-71
2022/10/03 04:48:15;;;;;;;22.23;16.97;;;;;;;10.14;100.00;97632.25;5013055;28;20258;-70
2022/10/03 04:51:02;;;;;;;20.63;17.17;;;;;;;10.14;100.00;97631.47;5013238;28;20203;-71
2022/10/03 04:54:22;;;;;;;22.23;16.80;;;;;;;10.10;100.00;97631.06;5011624;28;20530;-72
2022/10/03 04:57:16;;;;;;;19.53;16.03;;;;;;;10.16;100.00;97640.75;4904365;28;20211;-71
2022/10/03 05:00:07;;;;;;;23.33;16.73;;;;;;;10.23;100.00;97643.38;5005176;28;20624;-71
2022/10/03 05:02:50;;;;;;;19.40;16.30;;;;;;;10.17;100.00;97646.81;5011575;28;20263;-72
2022/10/03 05:05:48;;;;;;;20.23;16.50;;;;;;;10.23;100.00;97649.44;4979672;28;20211;-71
2022/10/03 05:08:21;;;;;;;19.20;16.63;;;;;;;10.17;100.00;97646.81;4952498;28;20206;-71
2022/10/03 05:11:39;;;;;;;22.27;16.90;;;;;;;10.35;100.00;97644.38;5011620;28;20176;-71
2022/10/03 05:14:21;;;;;;;20.27;16.87;;;;;;;10.28;100.00;97652.25;4987876;28;20205;-70
2022/10/03 05:17:05;;;;;;;23.10;16.33;;;;;;;10.30;100.00;97652.06;5012653;28;20190;-71
2022/10/03 05:19:52;;;;;;;27.50;17.43;;;;;;;10.32;100.00;97653.44;5012715;28;20588;-74
2022/10/03 05:22:30;;;;;;;20.60;15.40;;;;;;;10.39;100.00;97649.00;4999618;28;20180;-69
2022/10/03 05:25:14;;;;;;;22.97;15.93;;;;;;;10.27;100.00;97662.91;5010916;28;20191;-69
2022/10/03 05:27:39;;;;;;;23.13;17.30;;;;;;;10.35;100.00;97655.66;5012485;28;20544;-69
2022/10/03 05:30:19;;;;;;;21.67;17.37;;;;;;;10.33;100.00;97656.88;5002253;28;20275;-72
2022/10/03 05:33:01;;;;;;;21.40;17.30;;;;;;;10.31;100.00;97656.25;5009482;28;20179;-73
2022/10/03 05:35:36;;;;;;;24.40;17.13;;;;;;;10.33;100.00;97662.09;4996126;28;20191;-69
2022/10/03 05:38:15;;;;;;;28.10;17.83;;;;;;;10.30;100.00;97670.38;4997587;28;20180;-69
2022/10/03 05:41:01;;;;;;;21.00;16.60;;;;;;;10.27;100.00;97671.59;4996264;28;20254;-70
2022/10/03 05:43:57;;;;;;;29.37;19.17;;;;;;;10.42;100.00;97676.63;5014843;28;20186;-70
2022/10/03 05:46:46;;;;;;;27.03;18.37;;;;;;;10.25;100.00;97683.28;5003560;28;20208;-69
2022/10/03 05:49:30;;;;;;;26.70;19.27;;;;;;;10.42;100.00;97684.50;4997060;28;20517;-69
2022/10/03 05:52:14;;;;;;;34.40;20.87;;;;;;;10.36;100.00;97693.16;5005577;28;20171;-69
2022/10/03 05:54:58;;;;;;;28.27;20.23;;;;;;;10.35;100.00;97691.53;5016184;28;20183;-69
2022/10/03 05:57:51;;;;;;;27.37;18.50;;;;;;;10.37;100.00;97695.56;5016233;28;20191;-72
2022/10/03 06:00:37;;;;;;;29.63;19.00;;;;;;;10.30;100.00;97696.59;4998753;28;20274;-69
2022/10/03 06:03:30;;;;;;;27.37;18.27;;;;;;;10.23;100.00;97704.44;4998304;28;20227;-70
2022/10/03 06:06:19;;;;;;;29.47;19.50;;;;;;;10.32;100.00;97710.28;4999691;28;20235;-69
2022/10/03 06:09:19;;;;;;;31.37;20.10;;;;;;;10.38;100.00;97706.84;5011355;28;20203;-69
2022/10/03 06:12:13;;;;;;;35.80;20.13;;;;;;;10.39;100.00;97703.22;5002982;28;20178;-70
2022/10/03 06:14:57;;;;;;;37.90;24.67;;;;;;;10.34;100.00;97710.91;5015979;28;20199;-70
2022/10/03 06:17:45;;;;;;;32.40;21.00;;;;;;;10.38;100.00;97706.84;5015346;28;20193;-71
2022/10/03 06:20:26;;;;;;;34.30;20.07;;;;;;;10.26;100.00;97708.47;5015351;28;20184;-71
2022/10/03 06:23:17;;;;;;;31.17;20.83;;;;;;;10.25;100.00;97717.34;5000366;28;20180;-74
2022/10/03 06:26:07;;;;;;;34.37;22.33;;;;;;;10.28;100.00;97722.19;5008752;28;20614;-71
2022/10/03 06:29:19;;;;;;;36.47;21.07;;;;;;;10.33;100.00;97725.00;4976409;28;20236;-70
2022/10/03 06:32:09;;;;;;;39.10;23.23;;;;;;;10.35;100.00;97715.13;4951613;28;20243;-71
2022/10/03 06:35:01;;;;;;;40.17;22.50;;;;;;;10.33;100.00;97719.75;5015671;28;20183;-71
2022/10/03 06:37:56;;;;;;;37.80;23.00;;;;;;;10.40;100.00;97728.44;5004639;28;20192;-70
2022/10/03 06:40:38;;;;;;;32.40;21.43;;;;;;;10.36;100.00;97729.84;5010341;28;20282;-70
2022/10/03 06:43:37;;;;;;;30.57;20.47;;;;;;;10.31;100.00;97732.25;5006462;28;20190;-70
2022/10/03 06:46:30;;;;;;;29.13;20.90;;;;;;;10.58;100.00;97738.31;5014514;28;20246;-70
2022/10/03 06:49:14;;;;;;;31.37;20.60;;;;;;;10.68;100.00;97736.09;5008264;28;20196;-70
2022/10/03 06:52:02;;;;;;;32.83;21.60;;;;;;;10.84;100.00;97740.91;5007219;28;20175;-70
2022/10/03 06:55:03;;;;;;;30.97;21.40;;;;;;;10.70;100.00;97747.97;5010240;28;20192;-69
2022/10/03 06:57:50;;;;;;;31.67;21.23;;;;;;;10.57;100.00;97749.81;5014967;28;20198;-69
2022/10/03 07:01:00;;;;;;;31.77;22.37;;;;;;;10.60;100.00;97746.75;5014799;28;20179;-70
2022/10/03 07:03:55;;;;;;;30.83;25.07;;;;;;;10.65;100.00;97747.75;4949069;28;20431;-69
2022/10/03 07:06:30;;;;;;;31.17;24.20;;;;;;;10.58;100.00;97746.97;4995414;28;20594;-69
2022/10/03 07:09:43;;;;;;;37.17;33.40;;;;;;;10.56;100.00;97756.84;4995399;28;20176;-70
2022/10/03 07:12:39;;;;;;;24.40;19.30;;;;;;;10.56;100.00;97753.44;4997712;28;20205;-70
2022/10/03 07:15:16;;;;;;;30.70;20.87;;;;;;;10.44;100.00;97766.31;4994875;28;20199;-71
2022/10/03 07:18:11;;;;;;;22.70;17.80;;;;;;;10.38;100.00;97770.56;4995268;28;20180;-70
2022/10/03 07:21:04;;;;;;;32.13;20.60;;;;;;;10.62;100.00;97770.97;4996466;28;20180;-70
2022/10/03 07:24:01;;;;;;;29.53;20.07;;;;;;;10.85;100.00;97766.13;5002328;28;20233;-71
2022/10/03 07:27:01;;;;;;;23.63;19.73;;;;;;;10.98;100.00;97762.69;5014265;28;20286;-70
2022/10/03 07:29:29;;;;;;;28.53;19.33;;;;;;;11.04;100.00;97780.19;5014441;28;20624;-71
2022/10/03 07:32:10;;;;;;;29.10;19.40;;;;;;;11.11;100.00;97781.00;5002394;28;20180;-71
2022/10/03 07:35:22;;;;;;;25.33;20.70;;;;;;;11.15;100.00;97783.00;4995426;28;20176;-69
2022/10/03 07:41:20;;;;;;;23.87;21.23;;;;;;;11.48;100.00;97787.38;4997879;28;20237;-69
2022/10/03 07:44:10;;;;;;;20.17;18.07;;;;;;;11.27;100.00;97783.97;5013410;28;20235;-69
2022/10/03 07:46:39;;;;;;;23.47;19.23;;;;;;;11.76;100.00;97774.72;5012852;28;20229;-69
2022/10/03 07:49:39;;;;;;;26.10;21.53;;;;;;;11.57;100.00;97779.06;4998791;28;20183;-68
2022/10/03 07:52:07;;;;;;;21.90;19.20;;;;;;;11.55;100.00;97783.69;5001393;28;20517;-68
2022/10/03 07:54:35;;;;;;;21.57;19.27;;;;;;;11.56;100.00;97780.06;5009828;28;20636;-69
2022/10/03 07:57:36;;;;;;;23.37;21.17;;;;;;;11.49;100.00;97778.47;5012666;28;20195;-69
2022/10/03 08:00:30;;;;;;;21.60;19.50;;;;;;;11.54;100.00;97776.81;5001472;28;20180;-68
2022/10/03 08:03:32;;;;;;;24.33;20.17;;;;;;;11.87;100.00;97784.59;4941447;28;20309;-71
2022/10/03 08:06:00;;;;;;;27.43;19.87;;;;;;;12.09;100.00;97778.00;4976666;28;20325;-69
2022/10/03 08:08:52;;;;;;;26.17;20.67;;;;;;;12.08;100.00;97786.91;4994358;28;20631;-69
2022/10/03 08:11:38;;;;;;;19.73;17.53;;;;;;;11.90;100.00;97791.25;4994715;28;20226;-71
2022/10/03 08:14:15;;;;;;;23.73;17.27;;;;;;;11.94;100.00;97789.81;4993356;28;20230;-69
2022/10/03 08:17:08;;;;;;;17.93;16.00;;;;;;;11.86;100.00;97790.06;5004442;28;20184;-69
2022/10/03 08:19:54;;;;;;;20.27;15.87;;;;;;;11.82;100.00;97794.91;5001246;28;20195;-70
2022/10/03 08:22:48;;;;;;;19.70;15.90;;;;;;;11.38;100.00;97803.53;4986069;28;20182;-69
2022/10/03 08:25:35;;;;;;;20.57;16.57;;;;;;;12.16;100.00;97803.44;4990529;28;20172;-68
2022/10/03 08:28:31;;;;;;;21.63;18.50;;;;;;;12.30;100.00;97805.78;4993740;28;20179;-70
2022/10/03 08:31:03;;;;;;;24.47;17.70;;;;;;;12.80;100.00;97804.00;5011906;28;20741;-70
2022/10/03 08:33:52;;;;;;;19.70;17.77;;;;;;;12.78;100.00;97800.75;5004309;28;20532;-69
2022/10/03 08:36:41;;;;;;;19.60;17.50;;;;;;;12.62;100.00;97801.31;4984459;28;20215;-69
2022/10/03 08:39:25;;;;;;;18.43;16.23;;;;;;;12.54;100.00;97798.94;4983221;28;20245;-68
2022/10/03 08:42:40;;;;;;;19.17;14.63;;;;;;;12.25;100.00;97805.63;4987448;28;20656;-68
2022/10/03 08:45:20;;;;;;;17.40;15.47;;;;;;;12.01;100.00;97807.16;4992361;28;20243;-69
2022/10/03 08:47:51;;;;;;;19.90;15.80;;;;;;;12.00;100.00;97808.16;4991897;28;20237;-68
2022/10/03 08:50:55;;;;;;;21.73;18.03;;;;;;;11.70;100.00;97801.84;4993567;28;20192;-70
2022/10/03 08:53:27;;;;;;;20.40;17.23;;;;;;;11.63;100.00;97803.66;4984567;28;20611;-68
2022/10/03 08:55:58;;;;;;;19.00;14.33;;;;;;;11.58;100.00;97806.13;4993539;28;20191;-67
2022/10/03 08:58:42;;;;;;;28.40;25.80;;;;;;;11.44;100.00;97807.16;4993635;28;20263;-67
2022/10/03 09:01:14;;;;;;;23.63;15.67;;;;;;;11.24;100.00;97809.84;4993469;28;20211;-67
2022/10/03 09:03:58;;;;;;;17.43;15.60;;;;;;;11.04;100.00;97809.06;4993409;28;20234;-74
2022/10/03 09:06:45;;;;;;;17.47;15.63;;;;;;;11.05;100.00;97810.66;4993415;28;20618;-68
2022/10/03 09:09:19;;;;;;;19.53;17.13;;;;;;;11.15;100.00;97811.84;4995336;28;20190;-69
2022/10/03 09:11:47;;;;;;;21.33;19.20;;;;;;;11.32;100.00;97809.59;4997568;28;20180;-69
2022/10/03 09:14:12;;;;;;;22.80;20.50;;;;;;;11.43;100.00;97808.16;4997690;28;20254;-68
2022/10/03 09:16:48;;;;;;;27.90;25.37;;;;;;;11.61;100.00;97806.50;4997762;28;20644;-70
2022/10/03 09:19:29;;;;;;;19.30;15.27;;;;;;;11.98;100.00;97802.31;5014888;28;20195;-69
2022/10/03 09:22:06;;;;;;;26.20;23.83;;;;;;;11.82;100.00;97802.78;5010509;28;20593;-69
2022/10/03 09:24:43;;;;;;;16.73;14.60;;;;;;;11.62;100.00;97808.13;5001089;28;20190;-69
2022/10/03 09:27:33;;;;;;;16.73;13.43;;;;;;;11.57;100.00;97805.31;5015612;28;20286;-69
2022/10/03 09:30:28;;;;;;;16.63;14.37;;;;;;;11.68;100.00;97801.22;5016505;28;20627;-69
2022/10/03 09:33:11;;;;;;;21.03;16.40;;;;;;;11.71;100.00;97794.72;5016139;28;20190;-70
2022/10/03 09:36:10;;;;;;;20.07;16.33;;;;;;;11.78;100.00;97795.53;5016460;28;20592;-69
2022/10/03 09:39:12;;;;;;;21.07;19.07;;;;;;;11.96;100.00;97793.84;5003114;28;20199;-67
2022/10/03 09:41:57;;;;;;;19.50;15.57;;;;;;;12.46;100.00;97796.56;4984287;28;20222;-69
2022/10/03 09:44:42;;;;;;;14.30;13.00;;;;;;;12.75;100.00;97798.56;5015618;28;20318;-68
2022/10/03 09:47:26;;;;;;;17.77;15.13;;;;;;;12.31;100.00;97793.44;5002622;28;20237;-70
2022/10/03 09:50:00;;;;;;;15.20;13.70;;;;;;;12.74;100.00;97789.06;5014337;28;20192;-67
2022/10/03 09:52:51;;;;;;;24.70;22.60;;;;;;;12.63;100.00;97788.97;5016051;28;20201;-69
2022/10/03 09:55:39;;;;;;;15.47;13.83;;;;;;;12.03;100.00;97799.88;4977173;28;20539;-69
2022/10/03 09:58:29;;;;;;;24.07;21.10;;;;;;;12.34;100.00;97791.19;4989530;28;20637;-71
2022/10/03 10:01:21;;;;;;;19.83;17.80;;;;;;;12.34;100.00;97796.44;4996771;28;20245;-69
2022/10/03 10:03:46;;;;;;;11.90;10.80;;;;;;;12.34;100.00;97787.75;4996373;28;20172;-68
2022/10/03 10:06:26;;;;;;;13.60;11.63;;;;;;;12.08;100.00;97796.63;5009380;28;20204;-69
2022/10/03 10:08:58;;;;;;;15.53;12.83;;;;;;;12.57;100.00;97795.06;5013332;28;20197;-68
2022/10/03 10:11:33;;;;;;;32.73;29.77;;;;;;;12.55;100.00;97792.66;5002686;28;20188;-68
2022/10/03 10:14:29;;;;;;;36.77;34.23;;;;;;;12.29;100.00;97795.47;4996151;28;20242;-68
2022/10/03 10:17:29;;;;;;;31.83;29.43;;;;;;;13.21;100.00;97800.00;4997264;28;20188;-69
2022/10/03 10:20:10;;;;;;;34.53;31.87;;;;;;;13.51;100.00;97800.91;5006598;28;20621;-68
2022/10/03 10:23:06;;;;;;;31.67;29.33;;;;;;;13.55;100.00;97802.06;5008977;28;20269;-69
2022/10/03 10:25:51;;;;;;;21.30;19.63;;;;;;;13.76;100.00;97800.81;4999671;28;20180;-71
2022/10/03 10:28:30;;;;;;;17.70;15.97;;;;;;;13.39;100.00;97797.38;4997415;28;20293;-68
2022/10/03 10:31:16;;;;;;;16.67;15.03;;;;;;;13.42;100.00;97810.13;5012943;28;20175;-68
2022/10/03 10:34:23;;;;;;;17.37;15.77;;;;;;;13.36;100.00;97807.56;5015004;28;20179;-68
2022/10/03 10:37:20;;;;;;;21.37;19.60;;;;;;;13.06;100.00;97810.03;5014764;28;20241;-68
2022/10/03 10:39:54;;;;;;;18.63;15.23;;;;;;;13.45;100.00;97809.66;5005480;28;20192;-69
2022/10/03 10:42:45;;;;;;;16.33;15.07;;;;;;;13.17;100.00;97812.78;4997673;28;20263;-69
2022/10/03 10:45:41;;;;;;;13.60;12.50;;;;;;;12.30;100.00;97811.03;4958538;28;20259;-68
2022/10/03 10:48:30;;;;;;;15.10;13.77;;;;;;;12.84;100.00;97809.63;4995577;28;20188;-69
2022/10/03 10:51:33;;;;;;;10.90;9.57;;;;;;;13.32;100.00;97813.25;4982785;28;20195;-68
2022/10/03 10:54:35;;;;;;;11.57;9.83;;;;;;;13.05;100.00;97819.75;5001279;28;20176;-68
2022/10/03 10:57:24;;;;;;;12.83;10.37;;;;;;;14.02;100.00;97810.22;4997058;28;20175;-69
2022/10/03 11:00:06;;;;;;;11.57;10.43;;;;;;;14.21;100.00;97810.97;4995608;28;20625;-72
2022/10/03 11:02:57;;;;;;;20.07;18.63;;;;;;;14.61;91.76;97800.66;4995671;28;20234;-70
2022/10/03 11:05:56;;;;;;;13.10;11.90;;;;;;;14.05;97.92;97807.91;5008365;28;20183;-69
2022/10/03 11:08:36;;;;;;;21.97;20.07;;;;;;;14.19;96.33;97803.28;5013617;28;20176;-70
2022/10/03 11:11:38;;;;;;;28.40;26.43;;;;;;;14.10;94.77;97809.88;4974471;28;20188;-71
2022/10/03 11:14:36;;;;;;;27.73;25.40;;;;;;;14.24;93.91;97800.78;4975914;28;20750;-73
2022/10/03 11:17:38;;;;;;;40.17;37.50;;;;;;;14.47;91.82;97795.59;5014421;28;20591;-72
2022/10/03 11:20:35;;;;;;;40.53;37.83;;;;;;;14.55;91.64;97786.53;5015470;28;20214;-71
2022/10/03 11:23:00;;;;;;;38.30;35.80;;;;;;;14.85;91.31;97789.09;5013451;28;20644;-70
2022/10/03 11:25:52;;;;;;;26.67;24.70;;;;;;;14.65;90.68;97792.09;5009410;28;20207;-70
2022/10/03 11:28:39;;;;;;;23.17;21.43;;;;;;;14.73;89.80;97793.56;4988295;28;20193;-70
2022/10/03 11:31:28;;;;;;;16.30;14.87;;;;;;;14.24;90.58;97798.13;5000460;28;20721;-70
2022/10/03 11:34:35;;;;;;;23.73;22.03;;;;;;;13.87;97.02;97794.81;4996731;28;20237;-70
2022/10/03 11:37:27;;;;;;;12.93;11.17;;;;;;;14.68;92.67;97791.63;5014297;28;20175;-70
2022/10/03 11:40:10;;;;;;;21.73;20.07;;;;;;;14.54;92.58;97787.59;4990038;28;20310;-70
2022/10/03 11:42:52;;;;;;;19.33;17.67;;;;;;;14.37;94.00;97784.81;4994656;28;20219;-71
2022/10/03 11:45:36;;;;;;;22.10;20.17;;;;;;;14.61;95.39;97790.91;4977024;28;20238;-71
2022/10/03 11:48:08;;;;;;;17.47;15.83;;;;;;;14.05;99.43;97796.56;4994404;28;20199;-69
2022/10/03 11:50:59;;;;;;;16.43;10.57;;;;;;;13.71;99.57;97800.66;5002535;28;20190;-71
2022/10/03 11:53:59;;;;;;;20.63;19.13;;;;;;;13.70;99.05;97794.59;4994274;28;20644;-70
2022/10/03 11:56:33;;;;;;;36.37;33.57;;;;;;;13.37;98.75;97794.19;4994434;28;20326;-70
2022/10/03 11:59:23;;;;;;;19.47;17.63;;;;;;;13.27;100.00;97792.03;4995656;28;20176;-73
2022/10/03 12:02:14;;;;;;;14.57;13.40;;;;;;;13.40;100.00;97785.00;4988307;28;20547;-75
2022/10/03 12:04:49;;;;;;;24.87;22.83;;;;;;;13.53;99.82;97787.50;4979619;28;20527;-73
2022/10/03 12:10:27;;;;;;;26.43;24.50;;;;;;;13.47;100.00;97791.03;5001222;28;20599;-74
2022/10/03 12:12:55;;;;;;;33.17;31.03;;;;;;;14.00;99.77;97784.06;4997681;28;20593;-72
2022/10/03 12:15:23;;;;;;;21.07;19.17;;;;;;;13.98;93.01;97785.34;4993856;28;20188;-74
2022/10/03 12:18:19;;;;;;;17.83;16.23;;;;;;;13.67;96.24;97776.59;4976911;28;20184;-73
2022/10/03 12:20:56;;;;;;;23.63;22.10;;;;;;;13.54;94.28;97775.97;4991190;28;20194;-73
2022/10/03 12:23:55;;;;;;;30.67;28.60;;;;;;;13.54;93.73;97784.63;4991946;28;20172;-75
2022/10/03 12:26:42;;;;;;;13.60;12.37;;;;;;;13.57;95.38;97784.22;4995412;28;20231;-73
2022/10/03 12:29:13;;;;;;;24.13;20.47;;;;;;;13.62;92.27;97779.09;5011002;28;20194;-73
2022/10/03 12:32:06;;;;;;;22.27;20.70;;;;;;;13.77;93.59;97772.59;5010369;28;20195;-75
2022/10/03 12:34:49;;;;;;;12.53;11.30;;;;;;;13.64;89.19;97755.97;4993474;28;20187;-73
2022/10/03 12:37:17;;;;;;;27.03;25.27;;;;;;;13.90;85.44;97748.72;4993148;28;20194;-74
2022/10/03 12:39:56;;;;;;;21.77;19.93;;;;;;;13.71;88.77;97747.94;4993157;28;20183;-76
2022/10/03 12:42:56;;;;;;;15.27;13.73;;;;;;;13.88;85.99;97753.41;4994241;28;20267;-74
2022/10/03 12:45:34;;;;;;;18.37;16.87;;;;;;;13.85;86.15;97756.50;4993593;28;20231;-76
2022/10/03 12:48:03;;;;;;;21.30;19.83;;;;;;;13.99;84.71;97755.28;4996554;28;20183;-73
2022/10/03 12:50:42;;;;;;;17.47;16.00;;;;;;;13.89;84.09;97749.75;5007624;28;20188;-73
2022/10/03 12:53:16;;;;;;;13.63;12.23;;;;;;;13.63;83.14;97748.28;4993962;28;20191;-73
2022/10/03 12:55:53;;;;;;;9.73;8.73;;;;;;;13.72;80.95;97741.66;4993764;28;20191;-73